Time;durP1;ratioP1;P1;durP2;ratioP2;P2;SDS_P1;SDS_P2;PMS_P1;PMS_P2;Temp;Humidity;BMP_temperature;BMP_pressure;BME280_temperature;BME280_humidity;BME280_pressure;Samples;Min_cycle;Max_cycle;Signal;HPM_P1;HPM_P2
2022/04/06 00:00:05;;;;;;;23.03;14.47;;;9.70;99.90;;;;;;5090818;28;20208;-79
2022/04/06 00:02:32;;;;;;;20.97;14.27;;;9.70;99.90;;;;;;5092551;28;20202;-80
2022/04/06 00:05:00;;;;;;;22.13;14.70;;;9.70;99.90;;;;;;5086178;28;20205;-80
2022/04/06 00:07:27;;;;;;;21.00;14.30;;;9.70;99.90;;;;;;5091826;28;20229;-81
2022/04/06 00:09:54;;;;;;;19.57;13.93;;;9.70;99.90;;;;;;5091615;28;20204;-82
2022/04/06 00:12:22;;;;;;;20.83;14.63;;;9.70;99.90;;;;;;5089224;28;20636;-82
2022/04/06 00:14:49;;;;;;;21.83;14.10;;;9.70;99.90;;;;;;5096750;28;20560;-81
2022/04/06 00:17:16;;;;;;;21.40;14.13;;;9.70;99.90;;;;;;5090354;28;20194;-81
2022/04/06 00:19:43;;;;;;;23.00;15.87;;;9.60;99.90;;;;;;5090092;28;20197;-81
2022/04/06 00:22:10;;;;;;;22.83;15.40;;;9.60;99.90;;;;;;5089832;28;20194;-82
2022/04/06 00:24:37;;;;;;;25.13;14.97;;;9.60;99.90;;;;;;5089948;28;20198;-81
2022/04/06 00:27:04;;;;;;;25.57;16.90;;;9.60;99.90;;;;;;5090244;28;20197;-81
2022/04/06 00:29:32;;;;;;;25.40;16.47;;;9.60;99.90;;;;;;5094029;28;20563;-80
2022/04/06 00:31:59;;;;;;;23.00;15.20;;;9.60;99.90;;;;;;5093552;28;20575;-79
2022/04/06 00:37:07;;;;;;;21.23;14.33;;;9.60;99.90;;;;;;5085266;28;20272;-79
2022/04/06 00:39:34;;;;;;;21.30;13.57;;;9.50;99.90;;;;;;5090342;28;20209;-79
2022/04/06 00:42:01;;;;;;;20.90;12.90;;;9.60;99.90;;;;;;5092998;28;20198;-80
2022/04/06 00:44:28;;;;;;;18.03;11.73;;;9.50;99.90;;;;;;5091748;28;20201;-80
2022/04/06 00:46:56;;;;;;;16.53;10.23;;;9.50;99.90;;;;;;5098122;28;20618;-79
2022/04/06 00:49:23;;;;;;;16.57;10.40;;;9.50;99.90;;;;;;5088903;28;20201;-81
2022/04/06 00:51:50;;;;;;;12.90;8.20;;;9.50;99.90;;;;;;5089739;28;20193;-82
2022/04/06 00:54:20;;;;;;;15.20;8.20;;;9.40;99.90;;;;;;5091258;28;20198;-82
2022/04/06 00:56:48;;;;;;;14.63;8.47;;;9.40;99.90;;;;;;5097183;28;20209;-81
2022/04/06 00:59:17;;;;;;;13.00;8.67;;;9.30;99.90;;;;;;5089924;28;20205;-81
2022/04/06 01:01:45;;;;;;;15.37;9.00;;;9.30;99.90;;;;;;5098468;28;20566;-80
2022/04/06 01:04:14;;;;;;;16.33;9.70;;;9.40;99.90;;;;;;5094202;28;20210;-79
2022/04/06 01:06:41;;;;;;;16.17;9.97;;;9.40;99.90;;;;;;5093445;28;20194;-79
2022/04/06 01:09:09;;;;;;;15.80;10.27;;;9.40;99.90;;;;;;5094536;28;20221;-81
2022/04/06 01:11:36;;;;;;;16.33;10.47;;;9.40;99.90;;;;;;5093294;28;20201;-81
2022/04/06 01:14:03;;;;;;;20.50;11.47;;;9.40;99.90;;;;;;5097022;28;20194;-81
2022/04/06 01:16:30;;;;;;;21.07;12.40;;;9.40;99.90;;;;;;5094289;28;20561;-79
2022/04/06 01:18:57;;;;;;;21.43;13.47;;;9.30;99.90;;;;;;5093304;28;20194;-79
2022/04/06 01:21:25;;;;;;;21.37;12.73;;;9.40;99.90;;;;;;5095057;28;20209;-79
2022/04/06 01:23:53;;;;;;;24.37;14.97;;;9.40;99.90;;;;;;5093777;28;20197;-79
2022/04/06 01:26:21;;;;;;;23.93;14.60;;;9.40;99.90;;;;;;5093023;28;20194;-79
2022/04/06 01:28:48;;;;;;;24.70;14.47;;;9.30;99.90;;;;;;5092790;28;20218;-78
2022/04/06 01:31:14;;;;;;;25.57;15.73;;;9.30;99.90;;;;;;5093313;28;20194;-79
2022/04/06 01:33:41;;;;;;;25.77;15.17;;;9.40;99.90;;;;;;5094374;28;20571;-79
2022/04/06 01:36:08;;;;;;;26.87;16.63;;;9.40;99.90;;;;;;5094400;28;20202;-78
2022/04/06 01:38:35;;;;;;;27.57;16.47;;;9.40;99.90;;;;;;5093111;28;20208;-78
2022/04/06 01:41:04;;;;;;;24.93;16.03;;;9.40;99.90;;;;;;5092630;28;20215;-78
2022/04/06 01:43:31;;;;;;;31.63;16.87;;;9.40;99.90;;;;;;5093319;28;20197;-78
2022/04/06 01:45:59;;;;;;;29.17;16.83;;;9.50;99.90;;;;;;5093073;28;20224;-78
2022/04/06 01:48:26;;;;;;;24.37;16.40;;;9.50;99.90;;;;;;5093014;28;20675;-78
2022/04/06 01:53:37;;;;;;;28.17;16.13;;;9.50;99.90;;;;;;5093552;28;20281;-78
2022/04/06 01:56:05;;;;;;;28.67;17.07;;;9.50;99.90;;;;;;5093821;28;20204;-78
2022/04/06 01:58:32;;;;;;;29.30;18.17;;;9.60;99.90;;;;;;5092685;28;20586;-78
2022/04/06 02:00:59;;;;;;;31.37;17.80;;;9.60;99.90;;;;;;5093011;28;20636;-78
2022/04/06 02:03:26;;;;;;;33.43;17.03;;;9.50;99.90;;;;;;5093442;28;20217;-78
2022/04/06 02:05:53;;;;;;;29.20;17.97;;;9.50;99.90;;;;;;5093684;28;20563;-78
2022/04/06 02:08:20;;;;;;;29.70;17.93;;;9.50;99.90;;;;;;5092360;28;20232;-78
2022/04/06 02:10:47;;;;;;;29.40;18.80;;;9.60;99.90;;;;;;5093169;28;20206;-78
2022/04/06 02:13:15;;;;;;;30.80;18.73;;;9.50;99.90;;;;;;5092149;28;20201;-78
2022/04/06 02:15:42;;;;;;;32.73;19.20;;;9.50;99.90;;;;;;5092600;28;20500;-78
2022/04/06 02:18:09;;;;;;;30.40;18.97;;;9.50;99.90;;;;;;5093692;28;20209;-77
2022/04/06 02:20:36;;;;;;;35.00;21.40;;;9.60;99.90;;;;;;5092101;28;20709;-77
2022/04/06 02:23:04;;;;;;;32.17;21.17;;;9.60;99.90;;;;;;5093691;28;20202;-78
2022/04/06 02:25:31;;;;;;;35.33;21.43;;;9.60;99.90;;;;;;5093835;28;20814;-77
2022/04/06 02:27:58;;;;;;;37.83;23.87;;;9.60;99.90;;;;;;5092379;28;20218;-77
2022/04/06 02:30:26;;;;;;;36.23;24.63;;;9.60;99.90;;;;;;5092425;28;20572;-78
2022/04/06 02:32:53;;;;;;;39.67;25.00;;;9.60;99.90;;;;;;5096162;28;20655;-77
2022/04/06 02:35:20;;;;;;;37.33;25.03;;;9.60;99.90;;;;;;5094687;28;20595;-78
2022/04/06 02:37:47;;;;;;;43.40;26.27;;;9.70;99.90;;;;;;5093264;28;20206;-77
2022/04/06 02:40:16;;;;;;;38.80;25.37;;;9.60;99.90;;;;;;5092407;28;20206;-77
2022/04/06 02:42:43;;;;;;;43.57;28.57;;;9.70;99.90;;;;;;5093093;28;20204;-77
2022/04/06 02:45:10;;;;;;;39.80;26.47;;;9.70;99.90;;;;;;5098464;28;20220;-77
2022/04/06 02:47:39;;;;;;;44.30;29.10;;;9.70;99.90;;;;;;5103713;28;20635;-77
2022/04/06 02:50:06;;;;;;;43.63;29.40;;;9.70;99.90;;;;;;5092513;28;20198;-77
2022/04/06 02:52:33;;;;;;;43.60;29.63;;;9.70;99.90;;;;;;5091176;28;20200;-77
2022/04/06 02:55:00;;;;;;;47.63;30.17;;;9.70;99.90;;;;;;5092572;28;20198;-77
2022/04/06 02:57:27;;;;;;;46.67;30.00;;;9.70;99.90;;;;;;5092512;28;20547;-77
2022/04/06 02:59:54;;;;;;;46.00;29.57;;;9.60;99.90;;;;;;5091983;28;20296;-77
2022/04/06 03:02:21;;;;;;;49.13;28.60;;;9.70;99.90;;;;;;5092452;28;20202;-77
2022/04/06 03:04:49;;;;;;;46.17;29.93;;;9.70;99.90;;;;;;5092432;28;20208;-77
2022/04/06 03:07:20;;;;;;;46.83;28.57;;;9.80;99.90;;;;;;5092372;28;20205;-77
2022/04/06 03:09:47;;;;;;;45.50;28.97;;;9.80;99.90;;;;;;5092021;28;20210;-76
2022/04/06 03:12:14;;;;;;;46.57;29.27;;;9.80;99.90;;;;;;5092055;28;20209;-76
2022/04/06 03:14:41;;;;;;;46.23;29.30;;;9.80;99.90;;;;;;5091753;28;20194;-76
2022/04/06 03:17:08;;;;;;;44.73;28.80;;;9.80;99.90;;;;;;5091676;28;20293;-76
2022/04/06 03:19:34;;;;;;;44.70;30.83;;;9.80;99.90;;;;;;5089834;28;20933;-76
2022/04/06 03:22:03;;;;;;;44.83;29.20;;;9.80;99.90;;;;;;5089794;28;20208;-76
2022/04/06 03:24:30;;;;;;;44.07;28.87;;;9.80;99.90;;;;;;5092241;28;20201;-76
2022/04/06 03:26:57;;;;;;;47.03;29.90;;;9.80;99.90;;;;;;5092139;28;20217;-76
2022/04/06 03:29:24;;;;;;;44.23;27.27;;;9.80;99.90;;;;;;5091586;28;20583;-76
2022/04/06 03:31:50;;;;;;;45.27;28.10;;;9.70;99.90;;;;;;5092016;28;20202;-76
2022/04/06 03:34:17;;;;;;;45.63;29.03;;;9.70;99.90;;;;;;5091621;28;20208;-75
2022/04/06 03:36:44;;;;;;;43.80;28.47;;;9.80;99.90;;;;;;5092479;28;20202;-76
2022/04/06 03:39:12;;;;;;;42.60;26.37;;;9.70;99.90;;;;;;5091414;28;20653;-76
2022/04/06 03:41:39;;;;;;;43.43;27.33;;;9.80;99.90;;;;;;5092069;28;20211;-76
2022/04/06 03:44:06;;;;;;;45.77;28.13;;;9.80;99.90;;;;;;5091764;28;20209;-76
2022/04/06 03:46:33;;;;;;;40.93;26.83;;;9.80;99.90;;;;;;5091586;28;20212;-76
2022/04/06 03:49:00;;;;;;;44.03;25.97;;;9.80;99.90;;;;;;5090860;28;20225;-76
2022/04/06 03:51:26;;;;;;;42.30;27.27;;;9.80;99.90;;;;;;5091520;28;20213;-76
2022/04/06 03:53:53;;;;;;;44.40;27.50;;;9.80;99.90;;;;;;5092262;28;20201;-76
2022/04/06 03:56:22;;;;;;;44.00;27.00;;;9.80;99.90;;;;;;5091645;28;20205;-76
2022/04/06 03:58:48;;;;;;;39.37;26.23;;;9.90;99.90;;;;;;5091749;28;20193;-76
2022/04/06 04:01:16;;;;;;;42.57;24.87;;;9.90;99.90;;;;;;5091898;28;20754;-75
2022/04/06 04:03:43;;;;;;;39.60;24.30;;;9.90;99.90;;;;;;5091643;28;20609;-76
2022/04/06 04:06:10;;;;;;;41.00;24.70;;;9.80;99.90;;;;;;5091481;28;20536;-75
2022/04/06 04:08:37;;;;;;;39.87;24.07;;;9.80;99.90;;;;;;5091195;28;20221;-75
2022/04/06 04:11:04;;;;;;;44.43;24.83;;;9.90;99.90;;;;;;5092142;28;20236;-75
2022/04/06 04:13:32;;;;;;;37.30;22.70;;;9.80;99.90;;;;;;5091417;28;20231;-76
2022/04/06 04:15:59;;;;;;;35.60;21.63;;;9.80;99.90;;;;;;5091966;28;20567;-75
2022/04/06 04:18:26;;;;;;;36.13;22.13;;;9.80;99.90;;;;;;5091051;28;20202;-76
2022/04/06 04:21:31;;;;;;;32.83;20.27;;;9.90;99.90;;;;;;5091636;28;20190;-75
2022/04/06 04:23:40;;;;;;;36.33;22.03;;;9.90;99.90;;;;;;5091113;28;20201;-75
2022/04/06 04:26:07;;;;;;;34.43;21.33;;;9.90;99.90;;;;;;5091610;28;20197;-75
2022/04/06 04:28:35;;;;;;;34.87;19.63;;;9.90;99.90;;;;;;5090133;28;20227;-76
2022/04/06 04:31:02;;;;;;;34.03;20.37;;;9.80;99.90;;;;;;5094646;28;20574;-76
2022/04/06 04:33:30;;;;;;;35.70;20.77;;;9.80;99.90;;;;;;5094832;28;20201;-76
2022/04/06 04:35:57;;;;;;;34.63;21.43;;;9.80;99.90;;;;;;5095894;28;20240;-76
2022/04/06 04:38:24;;;;;;;31.67;18.83;;;9.80;99.90;;;;;;5095197;28;20296;-76
2022/04/06 04:40:51;;;;;;;34.67;19.13;;;9.80;99.90;;;;;;5093854;28;20551;-76
2022/04/06 04:43:18;;;;;;;33.13;19.30;;;9.70;99.90;;;;;;5094643;28;20206;-76
2022/04/06 04:45:46;;;;;;;29.13;18.67;;;9.80;99.90;;;;;;5095823;28;20224;-76
2022/04/06 04:48:16;;;;;;;29.20;17.57;;;9.80;99.90;;;;;;5094838;28;20204;-76
2022/04/06 04:50:43;;;;;;;29.43;18.00;;;9.80;99.90;;;;;;5094811;28;20189;-76
2022/04/06 04:53:10;;;;;;;24.63;15.73;;;9.70;99.90;;;;;;5095059;28;20558;-76
2022/04/06 04:55:37;;;;;;;29.17;17.20;;;9.80;99.90;;;;;;5094082;28;20221;-76
2022/04/06 04:58:03;;;;;;;27.73;15.43;;;9.80;99.90;;;;;;5093971;28;20201;-76
2022/04/06 05:00:31;;;;;;;26.87;15.73;;;9.80;99.90;;;;;;5094305;28;20197;-76
2022/04/06 05:02:59;;;;;;;27.03;15.90;;;9.80;99.90;;;;;;5095218;28;20266;-76
2022/04/06 05:05:26;;;;;;;26.33;14.90;;;9.80;99.90;;;;;;5094325;28;20193;-76
2022/04/06 05:07:53;;;;;;;24.67;14.67;;;9.80;99.90;;;;;;5094386;28;20205;-76
2022/04/06 05:10:20;;;;;;;22.93;14.93;;;9.80;99.90;;;;;;5094555;28;20219;-76
2022/04/06 05:12:48;;;;;;;25.00;14.93;;;9.80;99.90;;;;;;5094528;28;20655;-76
2022/04/06 05:15:15;;;;;;;22.70;14.50;;;9.80;99.90;;;;;;5095020;28;20205;-76
2022/04/06 05:17:42;;;;;;;28.20;15.57;;;9.80;99.90;;;;;;5103262;28;20223;-75
2022/04/06 05:20:11;;;;;;;23.67;14.10;;;9.80;99.90;;;;;;5098319;28;20679;-76
2022/04/06 05:22:38;;;;;;;23.53;13.57;;;9.80;99.90;;;;;;5095000;28;20569;-76
2022/04/06 05:25:07;;;;;;;21.67;13.47;;;9.80;99.90;;;;;;5095171;28;20560;-76
2022/04/06 05:27:43;;;;;;;22.67;13.80;;;9.80;99.90;;;;;;5110532;28;20225;-76
2022/04/06 05:30:11;;;;;;;23.73;13.90;;;9.80;99.90;;;;;;5093669;28;20664;-76
2022/04/06 05:32:38;;;;;;;22.40;13.63;;;9.80;99.90;;;;;;5114660;28;20208;-76
2022/04/06 05:35:06;;;;;;;25.93;14.13;;;9.80;99.90;;;;;;5111583;28;20193;-76
2022/04/06 05:37:35;;;;;;;22.70;13.60;;;9.80;99.90;;;;;;5113206;28;20279;-76
2022/04/06 05:40:02;;;;;;;22.73;14.00;;;9.80;99.90;;;;;;5113402;28;20541;-76
2022/04/06 05:42:29;;;;;;;23.10;13.83;;;9.80;99.90;;;;;;5099180;28;20204;-76
2022/04/06 05:44:56;;;;;;;22.43;14.07;;;9.90;99.90;;;;;;5093769;28;20198;-76
2022/04/06 05:47:23;;;;;;;22.50;13.03;;;9.90;99.90;;;;;;5093071;28;20194;-76
2022/04/06 05:49:50;;;;;;;24.10;13.73;;;9.80;99.90;;;;;;5093637;28;20217;-76
2022/04/06 05:52:17;;;;;;;21.00;12.83;;;9.80;99.90;;;;;;5093170;28;20201;-76
2022/04/06 05:54:45;;;;;;;21.53;12.70;;;9.90;99.90;;;;;;5094138;28;20212;-76
2022/04/06 05:57:12;;;;;;;24.60;13.67;;;9.80;99.90;;;;;;5093997;28;20197;-75
2022/04/06 05:59:39;;;;;;;19.07;12.23;;;9.90;69.80;;;;;;5093296;28;20532;-76
2022/04/06 06:02:06;;;;;;;22.13;12.83;;;9.90;43.70;;;;;;5093608;28;20250;-76
2022/04/06 06:04:34;;;;;;;26.13;13.33;;;9.90;67.00;;;;;;5092792;28;20210;-75
2022/04/06 06:07:01;;;;;;;24.60;13.10;;;9.90;29.00;;;;;;5093778;28;20349;-76
2022/04/06 06:09:28;;;;;;;21.50;13.03;;;9.90;52.00;;;;;;5092667;28;20223;-76
2022/04/06 06:11:56;;;;;;;23.23;12.80;;;9.90;96.10;;;;;;5093005;28;20548;-76
2022/04/06 06:14:23;;;;;;;25.50;13.03;;;9.90;99.90;;;;;;5093936;28;20217;-76
2022/04/06 06:16:50;;;;;;;26.80;14.07;;;10.00;1.00;;;;;;5099279;28;20576;-76
2022/04/06 06:19:18;;;;;;;23.43;12.60;;;10.00;64.50;;;;;;5096332;28;20201;-76
2022/04/06 06:21:45;;;;;;;22.70;13.47;;;9.90;99.90;;;;;;5087844;28;20200;-76
2022/04/06 06:24:12;;;;;;;24.23;14.17;;;9.90;99.90;;;;;;5085159;28;20209;-76
2022/04/06 06:26:42;;;;;;;21.83;13.83;;;9.90;75.00;;;;;;5086195;28;20649;-76
2022/04/06 06:29:11;;;;;;;27.37;14.73;;;9.90;92.10;;;;;;5083580;28;20227;-76
2022/04/06 06:31:38;;;;;;;27.07;15.17;;;9.90;96.30;;;;;;5090416;28;20194;-76
2022/04/06 06:34:05;;;;;;;23.87;14.73;;;9.90;28.50;;;;;;5092381;28;20194;-76
2022/04/06 06:36:32;;;;;;;26.30;16.13;;;10.00;28.40;;;;;;5092791;28;20547;-76
2022/04/06 06:38:59;;;;;;;27.60;15.67;;;9.90;43.30;;;;;;5090780;28;20206;-76
2022/04/06 06:41:26;;;;;;;29.23;14.63;;;9.90;99.90;;;;;;5091838;28;20198;-76
2022/04/06 06:43:54;;;;;;;29.17;16.37;;;9.90;95.70;;;;;;5092413;28;20292;-76
2022/04/06 06:46:23;;;;;;;25.57;15.70;;;9.90;63.50;;;;;;5092230;28;20205;-75
2022/04/06 06:48:51;;;;;;;25.83;16.17;;;10.00;31.60;;;;;;5091190;28;20232;-76
2022/04/06 06:51:19;;;;;;;24.30;15.63;;;10.00;85.00;;;;;;5105208;28;20209;-76
2022/04/06 06:53:46;;;;;;;29.17;16.67;;;10.00;1.00;;;;;;5108671;28;20197;-76
2022/04/06 06:56:15;;;;;;;27.83;16.30;;;10.00;27.40;;;;;;5076902;28;20186;-76
2022/04/06 06:58:42;;;;;;;27.67;15.60;;;10.00;21.40;;;;;;5069840;28;20207;-76
2022/04/06 07:01:09;;;;;;;23.73;14.53;;;10.00;1.00;;;;;;5071374;28;20194;-76
2022/04/06 07:03:37;;;;;;;26.77;15.27;;;10.10;1.00;;;;;;5071573;28;20206;-76
2022/04/06 07:06:04;;;;;;;25.37;15.33;;;10.10;1.00;;;;;;5071799;28;20260;-76
2022/04/06 07:08:31;;;;;;;25.10;15.23;;;10.10;1.00;;;;;;5075763;28;20733;-76
2022/04/06 07:10:58;;;;;;;23.07;14.63;;;10.10;1.00;;;;;;5091152;28;20221;-76
2022/04/06 07:13:25;;;;;;;23.80;14.17;;;10.00;1.00;;;;;;5091037;28;20193;-76
2022/04/06 07:15:52;;;;;;;22.73;12.90;;;10.10;1.00;;;;;;5090879;28;20201;-76
2022/04/06 07:18:21;;;;;;;22.03;13.33;;;10.10;1.00;;;;;;5089766;28;20202;-76
2022/04/06 07:20:50;;;;;;;17.97;12.53;;;10.10;1.00;;;;;;5087913;28;20233;-76
2022/04/06 07:23:17;;;;;;;18.83;12.20;;;10.10;1.00;;;;;;5090046;28;20408;-76
2022/04/06 07:25:44;;;;;;;17.77;12.07;;;10.10;1.00;;;;;;5090198;28;20255;-77
2022/04/06 07:28:11;;;;;;;19.23;10.93;;;10.10;1.00;;;;;;5090297;28;20197;-76
2022/04/06 07:30:38;;;;;;;16.57;10.77;;;10.10;1.00;;;;;;5088904;28;20225;-76
2022/04/06 07:33:05;;;;;;;14.57;9.63;;;10.10;1.00;;;;;;5090036;28;20259;-76
2022/04/06 07:35:35;;;;;;;20.93;12.07;;;10.10;99.90;;;;;;5091625;28;20198;-76
2022/04/06 07:38:03;;;;;;;17.20;10.90;;;10.20;99.90;;;;;;5091248;28;20198;-76
2022/04/06 07:40:30;;;;;;;18.73;10.27;;;10.20;99.90;;;;;;5088633;28;20266;-76
2022/04/06 07:42:57;;;;;;;16.80;10.40;;;10.20;1.00;;;;;;5091315;28;20282;-76
2022/04/06 07:45:25;;;;;;;19.40;10.63;;;10.20;1.00;;;;;;5091374;28;20725;-76
2022/04/06 07:47:53;;;;;;;15.63;10.07;;;10.30;99.90;;;;;;5091743;28;20201;-76
2022/04/06 07:50:21;;;;;;;15.83;9.50;;;10.40;99.90;;;;;;5090225;28;20244;-76
2022/04/06 07:52:49;;;;;;;14.67;8.47;;;10.40;99.90;;;;;;5090388;28;20266;-76
2022/04/06 07:55:18;;;;;;;17.90;10.30;;;10.40;1.00;;;;;;5091332;28;20288;-76
2022/04/06 07:57:45;;;;;;;14.37;8.97;;;10.40;1.00;;;;;;5090046;28;20210;-76
2022/04/06 08:00:15;;;;;;;14.17;8.73;;;10.40;1.00;;;;;;5090627;28;20197;-76
2022/04/06 08:02:43;;;;;;;14.50;9.37;;;10.40;1.00;;;;;;5090234;28;20241;-76
2022/04/06 08:05:10;;;;;;;13.07;8.77;;;10.40;1.00;;;;;;5095084;28;20201;-77
2022/04/06 08:07:43;;;;;;;15.10;9.03;;;10.40;1.00;;;;;;5095437;28;20536;-76
2022/04/06 08:10:12;;;;;;;16.00;8.53;;;10.40;1.00;;;;;;5096885;28;20217;-76
2022/04/06 08:12:40;;;;;;;16.80;8.70;;;10.40;99.90;;;;;;5097085;28;20251;-76
2022/04/06 08:15:09;;;;;;;15.40;8.60;;;10.40;99.90;;;;;;5097062;28;20637;-76
2022/04/06 08:17:37;;;;;;;16.00;9.80;;;10.40;1.00;;;;;;5095607;28;20641;-76
2022/04/06 08:20:05;;;;;;;15.30;8.63;;;10.40;1.00;;;;;;5095358;28;20510;-76
2022/04/06 08:22:35;;;;;;;13.67;8.57;;;10.40;1.00;;;;;;5096453;28;20197;-76
2022/04/06 08:25:13;;;;;;;13.83;8.50;;;10.40;1.00;;;;;;5097857;28;20268;-77
2022/04/06 08:27:41;;;;;;;17.63;8.53;;;10.40;1.00;;;;;;5095998;28;20296;-76
2022/04/06 08:30:11;;;;;;;16.70;8.90;;;10.40;1.00;;;;;;5094814;28;20270;-76
2022/04/06 08:32:38;;;;;;;13.87;8.17;;;10.50;1.00;;;;;;5095057;28;20756;-76
2022/04/06 08:35:06;;;;;;;12.10;7.37;;;10.50;1.00;;;;;;5096403;28;20288;-76
2022/04/06 08:37:38;;;;;;;12.30;7.27;;;10.50;1.00;;;;;;5094686;28;20236;-76
2022/04/06 08:40:07;;;;;;;13.20;7.60;;;10.50;1.00;;;;;;5092421;28;20577;-76
2022/04/06 08:42:42;;;;;;;8.67;6.00;;;10.50;1.00;;;;;;5086814;28;20897;-76
2022/04/06 08:45:09;;;;;;;11.27;6.37;;;10.50;1.00;;;;;;5097570;28;20288;-76
2022/04/06 08:47:37;;;;;;;11.13;6.20;;;10.50;80.30;;;;;;5101221;28;20259;-76
2022/04/06 08:50:06;;;;;;;10.17;5.30;;;10.60;63.10;;;;;;5098812;28;20650;-76
2022/04/06 08:52:34;;;;;;;7.47;5.00;;;10.50;1.00;;;;;;5103285;28;20232;-76
2022/04/06 08:55:01;;;;;;;11.07;5.70;;;10.50;1.00;;;;;;5108682;28;20234;-76
2022/04/06 08:57:28;;;;;;;7.27;4.87;;;10.50;1.00;;;;;;5096852;28;20284;-76
2022/04/06 08:59:57;;;;;;;7.63;4.90;;;10.50;1.00;;;;;;5096028;28;20296;-76
2022/04/06 09:02:24;;;;;;;10.40;4.80;;;10.50;1.00;;;;;;5104583;28;20246;-76
2022/04/06 09:04:52;;;;;;;11.57;5.27;;;10.50;1.00;;;;;;5117296;28;20305;-77
2022/04/06 09:07:21;;;;;;;6.93;4.60;;;10.60;99.90;;;;;;5097203;28;20284;-77
2022/04/06 09:09:52;;;;;;;7.17;5.00;;;10.70;1.00;;;;;;5095861;28;20213;-77
2022/04/06 09:12:20;;;;;;;8.27;4.53;;;10.70;1.00;;;;;;5096194;28;20284;-76
2022/04/06 09:14:48;;;;;;;6.80;4.13;;;10.70;99.90;;;;;;5097120;28;20288;-77
2022/04/06 09:17:21;;;;;;;8.23;4.93;;;10.70;1.00;;;;;;5093315;28;20216;-77
2022/04/06 09:19:50;;;;;;;7.23;4.60;;;10.60;30.20;;;;;;5092290;28;20248;-76
2022/04/06 09:22:18;;;;;;;7.90;4.70;;;10.70;1.00;;;;;;5092742;28;20219;-77
2022/04/06 09:24:45;;;;;;;11.17;4.83;;;10.70;1.00;;;;;;5094088;28;20536;-77
2022/04/06 09:27:12;;;;;;;7.93;4.50;;;10.80;99.90;;;;;;5092493;28;20197;-76
2022/04/06 09:29:39;;;;;;;12.20;5.00;;;10.80;1.00;;;;;;5103309;28;20229;-76
2022/04/06 09:32:10;;;;;;;10.87;5.10;;;10.80;1.00;;;;;;5092769;28;20675;-77
2022/04/06 09:34:38;;;;;;;9.70;3.83;;;10.90;99.90;;;;;;5092552;28;20487;-77
2022/04/06 09:37:28;;;;;;;9.50;4.47;;;10.90;99.90;;;;;;5093380;28;20244;-77
2022/04/06 09:39:56;;;;;;;6.47;4.13;;;11.20;99.90;;;;;;5078067;28;20565;-77
2022/04/06 09:42:24;;;;;;;9.03;4.87;;;11.20;99.90;;;;;;5093544;28;20263;-76
2022/04/06 09:47:41;;;;;;;8.97;4.27;;;11.30;99.90;;;;;;5054403;28;20628;-77
2022/04/06 09:50:11;;;;;;;9.47;4.63;;;11.40;99.90;;;;;;5092391;28;20654;-77
2022/04/06 09:52:38;;;;;;;8.40;4.73;;;11.50;1.00;;;;;;5093389;28;20242;-77
2022/04/06 09:55:08;;;;;;;9.27;4.90;;;11.70;99.90;;;;;;5093385;28;20225;-77
2022/04/06 09:57:41;;;;;;;10.13;5.00;;;12.20;99.90;;;;;;5091635;28;20614;-77
2022/04/06 10:00:11;;;;;;;10.27;5.07;;;12.30;99.90;;;;;;5092881;28;20193;-77
2022/04/06 10:02:38;;;;;;;9.90;5.37;;;12.30;99.90;;;;;;5091854;28;20201;-77
2022/04/06 10:05:06;;;;;;;9.57;5.20;;;12.40;15.70;;;;;;5092759;28;20201;-76
2022/04/06 10:07:35;;;;;;;8.00;5.10;;;12.80;99.90;;;;;;5091045;28;20622;-77
2022/04/06 10:10:02;;;;;;;8.53;5.17;;;12.80;1.00;;;;;;5091348;28;20683;-77
2022/04/06 10:12:29;;;;;;;7.67;4.80;;;12.90;1.00;;;;;;5092307;28;20297;-77
2022/04/06 10:15:00;;;;;;;8.40;4.93;;;12.80;1.00;;;;;;5091795;28;20233;-77
2022/04/06 10:17:28;;;;;;;8.33;4.43;;;12.60;1.00;;;;;;5090483;28;20280;-77
2022/04/06 10:20:06;;;;;;;5.37;4.20;;;12.60;1.00;;;;;;5090184;28;20285;-77
2022/04/06 10:22:47;;;;;;;6.93;4.53;;;12.60;1.00;;;;;;5091227;28;20236;-77
2022/04/06 10:25:18;;;;;;;7.27;4.10;;;12.50;1.00;;;;;;5093249;28;20292;-77
2022/04/06 10:27:51;;;;;;;7.73;4.13;;;12.50;99.90;;;;;;5091370;28;20202;-75
2022/04/06 10:30:22;;;;;;;8.23;3.90;;;12.40;1.00;;;;;;5089512;28;20739;-75
2022/04/06 10:32:50;;;;;;;6.63;3.60;;;12.50;99.90;;;;;;5094835;28;20210;-75
2022/04/06 10:35:18;;;;;;;5.77;3.80;;;12.50;99.90;;;;;;5092424;28;20282;-75
2022/04/06 10:38:09;;;;;;;8.40;3.87;;;12.40;99.90;;;;;;5091663;28;20384;-75
2022/04/06 10:40:59;;;;;;;8.43;4.00;;;12.20;1.00;;;;;;5089171;28;20728;-76
2022/04/06 10:43:50;;;;;;;7.33;3.90;;;12.10;1.00;;;;;;5091914;28;20248;-76
2022/04/06 10:46:19;;;;;;;6.10;4.10;;;12.30;1.00;;;;;;5087737;28;20213;-76
2022/04/06 10:48:59;;;;;;;8.30;3.87;;;12.70;1.00;;;;;;5091258;28;20570;-76
2022/04/06 10:51:33;;;;;;;5.73;3.83;;;13.10;1.00;;;;;;5092848;28;20703;-77
2022/04/06 10:54:40;;;;;;;5.50;3.97;;;13.10;1.00;;;;;;5092144;28;20206;-76
2022/04/06 10:57:07;;;;;;;5.60;3.73;;;13.10;1.00;;;;;;5089408;28;20293;-76
2022/04/06 10:59:34;;;;;;;7.53;3.80;;;12.60;1.00;;;;;;5091291;28;20202;-76
2022/04/06 11:02:21;;;;;;;8.53;4.13;;;12.50;99.90;;;;;;5090264;28;20244;-76
2022/04/06 11:04:49;;;;;;;7.00;3.70;;;12.70;99.90;;;;;;5091271;28;20233;-75
2022/04/06 11:10:15;;;;;;;5.00;3.93;;;12.30;1.00;;;;;;5084888;28;20197;-76
2022/04/06 11:12:58;;;;;;;6.33;4.00;;;12.30;13.90;;;;;;5090879;28;20227;-76
2022/04/06 11:15:34;;;;;;;9.90;3.93;;;12.40;1.00;;;;;;5090237;28;20445;-76
2022/04/06 11:18:01;;;;;;;8.27;3.47;;;12.40;1.00;;;;;;5091407;28;20632;-76
2022/04/06 11:20:34;;;;;;;4.77;3.07;;;12.40;1.00;;;;;;5090503;28;20710;-76
2022/04/06 11:23:01;;;;;;;6.53;3.40;;;12.30;1.00;;;;;;5087562;28;20605;-76
2022/04/06 11:25:32;;;;;;;6.03;3.47;;;12.30;1.00;;;;;;5091085;28;20292;-76
2022/04/06 11:28:07;;;;;;;8.10;4.70;;;12.40;1.00;;;;;;5089702;28;20612;-76
2022/04/06 11:30:35;;;;;;;6.03;4.30;;;12.50;99.90;;;;;;5089925;28;20232;-76
2022/04/06 11:33:05;;;;;;;5.87;5.00;;;12.30;1.00;;;;;;5091242;28;20214;-76
2022/04/06 11:35:35;;;;;;;7.90;5.10;;;12.30;1.00;;;;;;5090940;28;20214;-76
2022/04/06 11:38:04;;;;;;;7.23;4.80;;;12.50;1.00;;;;;;5093101;28;20198;-77
2022/04/06 11:40:33;;;;;;;7.43;4.70;;;12.40;32.20;;;;;;5086139;28;20237;-76
2022/04/06 11:43:05;;;;;;;8.63;5.37;;;12.10;1.00;;;;;;5094154;28;20201;-76
2022/04/06 11:45:34;;;;;;;8.30;5.13;;;12.10;99.90;;;;;;5093225;28;20680;-77
2022/04/06 11:48:02;;;;;;;7.47;4.77;;;12.10;99.90;;;;;;5090453;28;20644;-76
2022/04/06 11:50:31;;;;;;;7.13;4.70;;;11.90;99.90;;;;;;5092544;28;20198;-77
2022/04/06 11:53:02;;;;;;;9.20;5.07;;;11.90;1.00;;;;;;5089790;28;20271;-74
2022/04/06 11:55:47;;;;;;;7.53;4.60;;;11.90;1.00;;;;;;5095654;28;20205;-74
2022/04/06 11:58:29;;;;;;;5.67;4.40;;;11.90;1.00;;;;;;5094417;28;20244;-76
2022/04/06 12:01:01;;;;;;;7.00;4.30;;;12.00;1.00;;;;;;5093720;28;20644;-73
2022/04/06 12:03:29;;;;;;;5.33;4.30;;;11.90;1.00;;;;;;5089297;28;20198;-74
2022/04/06 12:05:56;;;;;;;5.97;4.47;;;11.80;1.00;;;;;;5092684;28;20708;-75
2022/04/06 12:08:23;;;;;;;4.80;4.03;;;11.90;1.00;;;;;;5090055;28;20204;-73
2022/04/06 12:10:53;;;;;;;8.40;4.47;;;12.00;1.00;;;;;;5090133;28;20237;-74
2022/04/06 12:13:22;;;;;;;7.67;4.60;;;12.10;1.00;;;;;;5090874;28;20197;-74
2022/04/06 12:15:49;;;;;;;7.73;4.73;;;12.10;1.00;;;;;;5090939;28;20201;-74
2022/04/06 12:18:18;;;;;;;8.37;4.87;;;12.10;99.90;;;;;;5092167;28;20197;-74
2022/04/06 12:20:46;;;;;;;9.73;4.43;;;12.10;1.00;;;;;;5090486;28;20284;-75
2022/04/06 12:23:13;;;;;;;7.17;4.60;;;12.10;94.90;;;;;;5090190;28;20263;-74
2022/04/06 12:25:41;;;;;;;5.90;3.80;;;12.00;1.00;;;;;;5090620;28;20241;-75
2022/04/06 12:28:19;;;;;;;4.20;3.70;;;12.00;1.00;;;;;;5089771;28;20195;-74
2022/04/06 12:30:58;;;;;;;4.40;3.93;;;12.00;82.90;;;;;;5082727;28;20258;-74
2022/04/06 12:33:36;;;;;;;4.70;4.20;;;12.00;99.90;;;;;;5090413;28;20203;-74
2022/04/06 12:36:09;;;;;;;7.60;4.30;;;12.10;99.90;;;;;;5091758;28;20260;-74
2022/04/06 12:38:37;;;;;;;7.47;4.27;;;12.00;99.90;;;;;;5085386;28;20245;-73
2022/04/06 12:41:05;;;;;;;9.17;4.80;;;12.00;99.90;;;;;;5089035;28;20551;-75
2022/04/06 12:43:37;;;;;;;6.97;4.90;;;11.90;99.90;;;;;;5088536;28;20647;-74
2022/04/06 12:46:05;;;;;;;7.70;4.90;;;12.00;99.90;;;;;;5091069;28;20254;-74
2022/04/06 12:48:32;;;;;;;5.13;3.97;;;12.00;99.90;;;;;;5089468;28;20186;-75
2022/04/06 12:50:59;;;;;;;6.13;4.00;;;12.10;99.90;;;;;;5090109;28;20281;-74
2022/04/06 12:53:26;;;;;;;6.80;4.23;;;12.10;99.90;;;;;;5094213;28;20220;-74
2022/04/06 12:56:22;;;;;;;6.73;4.13;;;12.00;99.90;;;;;;5093903;28;20264;-75
2022/04/06 12:59:09;;;;;;;7.10;4.37;;;11.90;1.00;;;;;;5075540;28;20214;-74
2022/04/06 13:01:45;;;;;;;9.87;4.07;;;11.90;1.00;;;;;;5092949;28;20197;-75